Time;durP1;ratioP1;P1;durP2;ratioP2;P2;SDS_P1;SDS_P2;PMS_P1;PMS_P2;Temp;Humidity;BMP_temperature;BMP_pressure;BME280_temperature;BME280_humidity;BME280_pressure;Samples;Min_cycle;Max_cycle;Signal;HPM_P1;HPM_P2
2022/04/04 00:01:51;;;;;;;7.50;4.50;;;2.80;79.90;;;;;;5073582;28;20577;-70
2022/04/04 00:04:19;;;;;;;7.00;4.30;;;2.80;79.90;;;;;;5074038;28;20254;-70
2022/04/04 00:06:46;;;;;;;5.90;4.23;;;2.80;80.00;;;;;;5076133;28;20213;-71
2022/04/04 00:09:13;;;;;;;9.17;4.43;;;2.70;80.10;;;;;;5073353;28;20221;-71
2022/04/04 00:11:40;;;;;;;9.30;4.80;;;2.70;80.30;;;;;;5074932;28;20236;-71
2022/04/04 00:14:07;;;;;;;7.57;3.80;;;2.80;80.50;;;;;;5073671;28;20229;-71
2022/04/04 00:16:34;;;;;;;6.93;4.07;;;2.70;80.70;;;;;;5075671;28;20293;-71
2022/04/04 00:19:01;;;;;;;5.73;3.50;;;2.70;80.90;;;;;;5072159;28;20213;-71
2022/04/04 00:21:29;;;;;;;7.07;4.87;;;2.70;81.90;;;;;;5073411;28;20630;-71
2022/04/04 00:23:56;;;;;;;7.60;4.13;;;2.70;80.80;;;;;;5076218;28;20237;-71
2022/04/04 00:26:23;;;;;;;6.30;3.80;;;2.70;80.70;;;;;;5075109;28;20229;-70
2022/04/04 00:28:50;;;;;;;5.10;3.50;;;2.70;80.60;;;;;;5075207;28;20789;-71
2022/04/04 00:31:17;;;;;;;6.13;3.70;;;2.60;80.30;;;;;;5067061;28;20650;-69
2022/04/04 00:33:44;;;;;;;6.20;3.10;;;2.70;80.00;;;;;;5074238;28;20312;-70
2022/04/04 00:36:11;;;;;;;6.40;3.97;;;2.60;79.60;;;;;;5075352;28;20202;-71
2022/04/04 00:38:40;;;;;;;7.30;3.70;;;2.60;79.50;;;;;;5058612;28;20301;-71
2022/04/04 00:41:09;;;;;;;5.80;3.63;;;2.50;79.30;;;;;;5055421;28;20553;-71
2022/04/04 00:43:36;;;;;;;6.50;3.80;;;2.50;79.40;;;;;;5054966;28;20198;-70
2022/04/04 00:46:03;;;;;;;6.47;4.40;;;2.40;79.30;;;;;;5054943;28;20246;-72
2022/04/04 00:48:30;;;;;;;5.90;3.63;;;2.30;79.20;;;;;;5067566;28;20255;-72
2022/04/04 00:50:58;;;;;;;5.67;4.00;;;2.30;79.40;;;;;;5056916;28;20287;-70
2022/04/04 00:53:27;;;;;;;7.87;4.20;;;2.30;79.70;;;;;;5073630;28;20282;-70
2022/04/04 00:55:55;;;;;;;7.20;3.93;;;2.30;79.80;;;;;;5074910;28;20209;-71
2022/04/04 00:58:23;;;;;;;7.27;3.97;;;2.20;79.80;;;;;;5074019;28;20201;-71
2022/04/04 01:00:50;;;;;;;7.97;3.53;;;2.20;80.10;;;;;;5072938;28;20296;-71
2022/04/04 01:03:17;;;;;;;9.03;3.77;;;2.10;80.10;;;;;;5065058;28;20245;-70
2022/04/04 01:05:44;;;;;;;6.63;4.27;;;2.10;80.30;;;;;;5071342;28;20315;-71
2022/04/04 01:08:13;;;;;;;6.57;4.07;;;2.10;80.60;;;;;;5073069;28;20225;-70
2022/04/04 01:10:40;;;;;;;10.00;3.83;;;2.10;80.80;;;;;;5071711;28;20213;-70
2022/04/04 01:13:10;;;;;;;7.13;3.83;;;2.00;81.10;;;;;;5074471;28;20296;-70
2022/04/04 01:15:37;;;;;;;3.87;3.33;;;2.00;81.20;;;;;;5074631;28;20236;-70
2022/04/04 01:18:04;;;;;;;6.57;4.17;;;2.00;81.40;;;;;;5069532;28;20206;-71
2022/04/04 01:20:32;;;;;;;7.50;4.50;;;1.90;81.20;;;;;;5054863;28;20267;-70
2022/04/04 01:22:59;;;;;;;8.67;3.83;;;1.90;81.30;;;;;;5062993;28;20205;-70
2022/04/04 01:25:29;;;;;;;8.67;3.97;;;1.90;81.40;;;;;;5070096;28;20342;-70
2022/04/04 01:27:56;;;;;;;6.70;4.10;;;1.90;81.30;;;;;;5073767;28;20225;-71
2022/04/04 01:30:23;;;;;;;6.77;3.77;;;1.90;81.20;;;;;;5072907;28;20300;-70
2022/04/04 01:32:50;;;;;;;5.47;3.93;;;1.90;81.20;;;;;;5074114;28;20206;-69
2022/04/04 01:35:17;;;;;;;5.93;3.73;;;1.90;80.90;;;;;;5074576;28;20587;-71
2022/04/04 01:37:44;;;;;;;7.77;4.27;;;1.90;80.80;;;;;;5073618;28;20641;-70
2022/04/04 01:40:12;;;;;;;9.40;4.30;;;1.80;80.60;;;;;;5055629;28;20206;-71
2022/04/04 01:42:41;;;;;;;8.30;4.13;;;1.90;80.40;;;;;;5062873;28;20297;-70
2022/04/04 01:45:11;;;;;;;6.67;4.03;;;1.90;80.10;;;;;;5071770;28;20233;-70
2022/04/04 01:47:39;;;;;;;7.93;4.73;;;1.90;79.90;;;;;;5067146;28;20205;-72
2022/04/04 01:50:07;;;;;;;7.70;4.20;;;1.80;79.40;;;;;;5073230;28;20260;-70
2022/04/04 01:52:34;;;;;;;9.17;4.37;;;1.80;79.00;;;;;;5073846;28;20684;-71
2022/04/04 01:55:01;;;;;;;6.50;4.40;;;1.80;78.70;;;;;;5073565;28;20236;-70
2022/04/04 01:57:27;;;;;;;8.23;4.40;;;1.80;78.60;;;;;;5062448;28;20215;-70
2022/04/04 01:59:56;;;;;;;5.50;4.00;;;1.80;78.30;;;;;;5073390;28;20198;-71
2022/04/04 02:02:23;;;;;;;6.50;3.60;;;1.80;78.20;;;;;;5061742;28;20292;-70
2022/04/04 02:04:49;;;;;;;9.37;4.13;;;1.90;78.00;;;;;;5071388;28;20286;-70
2022/04/04 02:07:16;;;;;;;7.63;4.20;;;1.80;77.80;;;;;;5073801;28;20245;-70
2022/04/04 02:09:43;;;;;;;8.53;4.10;;;1.80;77.80;;;;;;5073960;28;20232;-70
2022/04/04 02:12:11;;;;;;;6.77;4.07;;;1.80;77.80;;;;;;5072517;28;20624;-70
2022/04/04 02:14:38;;;;;;;7.43;3.60;;;1.80;77.80;;;;;;5072835;28;20270;-70
2022/04/04 02:17:07;;;;;;;9.37;4.80;;;1.80;77.80;;;;;;5075963;28;20287;-70
2022/04/04 02:19:34;;;;;;;6.90;3.90;;;1.80;77.80;;;;;;5069943;28;20205;-71
2022/04/04 02:22:00;;;;;;;5.73;4.23;;;1.80;77.80;;;;;;5069474;28;20249;-70
2022/04/04 02:24:27;;;;;;;6.07;3.93;;;1.80;77.80;;;;;;5075408;28;20244;-70
2022/04/04 02:26:54;;;;;;;7.73;4.17;;;1.70;77.70;;;;;;5076275;28;20705;-70
2022/04/04 02:29:21;;;;;;;5.97;3.70;;;1.70;77.70;;;;;;5076621;28;20609;-70
2022/04/04 02:31:48;;;;;;;6.53;3.70;;;1.70;77.70;;;;;;5073408;28;20213;-70
2022/04/04 02:34:16;;;;;;;7.03;3.73;;;1.70;77.70;;;;;;5075066;28;20245;-70
2022/04/04 02:36:43;;;;;;;8.33;4.17;;;1.60;77.60;;;;;;5076933;28;20686;-71
2022/04/04 02:39:10;;;;;;;4.93;3.73;;;1.70;77.70;;;;;;5067595;28;20248;-71
2022/04/04 02:41:37;;;;;;;6.17;3.80;;;1.60;77.60;;;;;;5064293;28;20206;-69
2022/04/04 02:44:04;;;;;;;7.13;3.80;;;1.60;77.60;;;;;;5076441;28;20232;-70
2022/04/04 02:46:31;;;;;;;8.27;4.20;;;1.60;77.60;;;;;;5076258;28;20641;-70
2022/04/04 02:48:58;;;;;;;6.13;4.43;;;1.70;77.70;;;;;;5063606;28;20265;-70
2022/04/04 02:51:26;;;;;;;6.70;3.97;;;1.60;77.50;;;;;;5076484;28;20737;-70
2022/04/04 02:53:53;;;;;;;3.83;3.37;;;1.60;77.60;;;;;;5072655;28;20236;-70
2022/04/04 02:56:32;;;;;;;6.40;3.67;;;1.60;77.60;;;;;;5075868;28;20205;-69
2022/04/04 02:59:02;;;;;;;8.50;4.40;;;1.60;77.60;;;;;;5063658;28;20712;-70
2022/04/04 03:01:29;;;;;;;6.10;3.90;;;1.60;77.50;;;;;;5074304;28;20235;-70
2022/04/04 03:03:57;;;;;;;6.20;4.00;;;1.60;77.60;;;;;;5065740;28;20667;-70
2022/04/04 03:06:24;;;;;;;4.80;3.37;;;1.60;77.60;;;;;;5066037;28;20220;-69
2022/04/04 03:08:52;;;;;;;6.97;4.10;;;1.60;77.60;;;;;;5076622;28;20263;-70
2022/04/04 03:11:19;;;;;;;5.97;3.87;;;1.50;77.60;;;;;;5066031;28;20202;-70
2022/04/04 03:13:46;;;;;;;5.60;3.50;;;1.50;77.90;;;;;;5068365;28;20319;-70
2022/04/04 03:16:14;;;;;;;5.73;4.00;;;1.60;78.30;;;;;;5076985;28;20224;-70
2022/04/04 03:18:41;;;;;;;6.67;3.83;;;1.50;78.50;;;;;;5076451;28;20569;-70
2022/04/04 03:21:08;;;;;;;5.50;4.03;;;1.50;78.40;;;;;;5075358;28;20308;-70
2022/04/04 03:23:39;;;;;;;6.13;4.20;;;1.50;78.60;;;;;;5076355;28;20588;-70
2022/04/04 03:26:08;;;;;;;7.20;4.23;;;1.50;78.90;;;;;;5076632;28;20232;-70
2022/04/04 03:28:36;;;;;;;6.97;4.20;;;1.40;79.00;;;;;;5064188;28;20588;-70
2022/04/04 03:31:04;;;;;;;10.83;4.63;;;1.50;79.20;;;;;;5069796;28;20210;-70
2022/04/04 03:33:31;;;;;;;9.30;4.27;;;1.50;79.30;;;;;;5074178;28;20581;-70
2022/04/04 03:35:58;;;;;;;7.77;4.03;;;1.40;80.10;;;;;;5075633;28;20210;-70
2022/04/04 03:38:25;;;;;;;5.87;4.07;;;1.40;79.90;;;;;;5072952;28;20269;-70
2022/04/04 03:40:53;;;;;;;6.87;4.00;;;1.40;80.10;;;;;;5056381;28;20300;-70
2022/04/04 03:43:21;;;;;;;9.60;4.83;;;1.40;80.30;;;;;;5069952;28;20232;-70
2022/04/04 03:45:48;;;;;;;9.70;4.57;;;1.40;80.70;;;;;;5073404;28;20302;-72
2022/04/04 03:48:15;;;;;;;4.93;3.80;;;1.40;80.70;;;;;;5070423;28;20205;-71
2022/04/04 03:50:43;;;;;;;7.60;4.60;;;1.40;80.90;;;;;;5075496;28;20201;-70
2022/04/04 03:53:10;;;;;;;6.37;4.03;;;1.40;81.30;;;;;;5075085;28;20209;-70
2022/04/04 03:55:39;;;;;;;7.30;3.97;;;1.40;81.40;;;;;;5076441;28;20197;-70
2022/04/04 03:58:08;;;;;;;6.03;4.00;;;1.40;81.60;;;;;;5073962;28;20211;-71
2022/04/04 04:00:37;;;;;;;6.80;4.47;;;1.40;82.30;;;;;;5069040;28;20205;-71
2022/04/04 04:03:05;;;;;;;5.37;3.90;;;1.40;82.40;;;;;;5072126;28;20267;-72
2022/04/04 04:05:32;;;;;;;8.47;4.30;;;1.50;82.50;;;;;;5075518;28;20205;-70
2022/04/04 04:07:59;;;;;;;6.93;3.93;;;1.50;82.70;;;;;;5075945;28;20220;-71
2022/04/04 04:10:26;;;;;;;11.40;4.23;;;1.50;83.00;;;;;;5075560;28;20263;-70
2022/04/04 04:12:53;;;;;;;7.67;4.37;;;1.60;83.50;;;;;;5068818;28;20571;-70
2022/04/04 04:15:23;;;;;;;9.13;4.40;;;1.60;83.50;;;;;;5068453;28;20220;-70
2022/04/04 04:17:52;;;;;;;5.93;4.33;;;1.80;83.50;;;;;;5075156;28;20264;-70
2022/04/04 04:20:23;;;;;;;8.20;3.83;;;1.70;83.50;;;;;;5075111;28;20257;-70
2022/04/04 04:22:52;;;;;;;7.70;4.33;;;1.70;83.50;;;;;;5071896;28;20221;-72
2022/04/04 04:25:20;;;;;;;5.57;4.13;;;1.80;83.70;;;;;;5064303;28;20206;-71
2022/04/04 04:27:47;;;;;;;6.53;4.67;;;1.80;83.80;;;;;;5070942;28;20673;-70
2022/04/04 04:30:15;;;;;;;8.10;4.30;;;1.80;84.00;;;;;;5062546;28;20232;-70
2022/04/04 04:32:44;;;;;;;6.10;3.80;;;1.80;85.10;;;;;;5065183;28;20202;-70
2022/04/04 04:35:12;;;;;;;7.50;4.20;;;1.90;84.50;;;;;;5071227;28;20224;-71
2022/04/04 04:37:39;;;;;;;8.13;4.70;;;1.90;84.80;;;;;;5074079;28;20232;-70
2022/04/04 04:40:08;;;;;;;8.30;4.53;;;2.50;85.50;;;;;;5061387;28;20345;-71
2022/04/04 04:42:35;;;;;;;5.73;4.13;;;2.00;85.00;;;;;;5065486;28;20209;-70
2022/04/04 04:45:03;;;;;;;8.57;4.40;;;2.00;85.10;;;;;;5074479;28;20271;-71
2022/04/04 04:47:30;;;;;;;8.83;4.67;;;2.00;85.00;;;;;;5075148;28;20244;-70
2022/04/04 04:49:57;;;;;;;5.70;4.00;;;2.00;85.30;;;;;;5073894;28;20237;-71
2022/04/04 04:52:26;;;;;;;6.43;4.20;;;2.10;85.50;;;;;;5074504;28;20604;-71
2022/04/04 04:54:53;;;;;;;6.30;4.20;;;2.00;85.80;;;;;;5062257;28;20660;-70
2022/04/04 04:57:21;;;;;;;7.53;4.37;;;2.10;86.00;;;;;;5072235;28;20205;-71
2022/04/04 04:59:48;;;;;;;8.47;4.83;;;2.10;86.10;;;;;;5067763;28;20602;-70
2022/04/04 05:02:15;;;;;;;7.43;4.80;;;2.10;86.40;;;;;;5073769;28;21055;-70
2022/04/04 05:04:42;;;;;;;6.63;4.37;;;2.20;86.40;;;;;;5074967;28;20225;-71
2022/04/04 05:07:09;;;;;;;7.20;4.67;;;2.20;86.70;;;;;;5075322;28;20229;-73
2022/04/04 05:09:37;;;;;;;9.17;5.30;;;2.20;87.00;;;;;;5063409;28;20651;-70
2022/04/04 05:12:05;;;;;;;8.67;4.80;;;2.30;87.40;;;;;;5073892;28;20343;-71
2022/04/04 05:14:32;;;;;;;6.67;4.30;;;2.30;87.70;;;;;;5074271;28;20254;-71
2022/04/04 05:16:59;;;;;;;7.60;4.77;;;2.40;88.00;;;;;;5073657;28;20239;-71
2022/04/04 05:19:26;;;;;;;11.60;5.23;;;2.40;88.10;;;;;;5071129;28;20709;-72
2022/04/04 05:21:53;;;;;;;11.90;5.43;;;2.40;88.20;;;;;;5073385;28;20221;-71
2022/04/04 05:24:20;;;;;;;9.97;5.07;;;2.50;88.30;;;;;;5073516;28;20212;-72
2022/04/04 05:26:48;;;;;;;7.23;4.87;;;2.60;88.40;;;;;;5065418;28;20668;-71
2022/04/04 05:29:17;;;;;;;6.50;4.50;;;2.50;88.40;;;;;;5072237;28;20261;-70
2022/04/04 05:31:45;;;;;;;7.93;4.90;;;2.60;89.10;;;;;;5072439;28;20205;-71
2022/04/04 05:34:11;;;;;;;7.90;4.97;;;2.60;89.50;;;;;;5073267;28;20205;-72
2022/04/04 05:36:39;;;;;;;7.00;5.13;;;2.60;89.60;;;;;;5073744;28;20209;-70
2022/04/04 05:39:07;;;;;;;8.30;5.47;;;2.60;90.00;;;;;;5064248;28;20202;-70
2022/04/04 05:41:36;;;;;;;6.33;4.93;;;2.60;90.30;;;;;;5055005;28;20616;-71
2022/04/04 05:44:06;;;;;;;8.47;5.03;;;2.60;90.80;;;;;;5073847;28;20212;-71
2022/04/04 05:46:33;;;;;;;12.60;5.83;;;2.60;91.40;;;;;;5069463;28;20710;-70
2022/04/04 05:49:01;;;;;;;10.10;5.83;;;2.60;92.10;;;;;;5072419;28;20218;-71
2022/04/04 05:51:28;;;;;;;13.60;5.97;;;2.60;93.10;;;;;;5068617;28;20209;-70
2022/04/04 05:53:55;;;;;;;10.40;5.70;;;2.70;94.10;;;;;;5073661;28;20574;-71
2022/04/04 05:56:22;;;;;;;8.73;5.80;;;2.80;95.00;;;;;;5077772;28;20214;-70
2022/04/04 05:58:50;;;;;;;9.37;6.13;;;2.80;95.60;;;;;;5074317;28;20693;-70
2022/04/04 06:01:18;;;;;;;8.07;5.33;;;2.90;96.20;;;;;;5077129;28;20258;-69
2022/04/04 06:03:45;;;;;;;10.17;5.93;;;2.90;96.70;;;;;;5076995;28;20243;-69
2022/04/04 06:06:12;;;;;;;7.43;5.50;;;2.90;97.20;;;;;;5069679;28;20209;-72
2022/04/04 06:08:39;;;;;;;12.10;5.90;;;2.90;97.90;;;;;;5067287;28;20220;-70
2022/04/04 06:11:06;;;;;;;11.20;6.57;;;2.90;98.50;;;;;;5067309;28;20226;-69
2022/04/04 06:13:34;;;;;;;9.50;5.90;;;2.90;99.40;;;;;;5061337;28;20241;-69
2022/04/04 06:16:01;;;;;;;10.17;5.33;;;2.90;99.90;;;;;;5069431;28;20322;-68
2022/04/04 06:18:30;;;;;;;9.07;5.63;;;2.90;99.90;;;;;;5072920;28;20208;-70
2022/04/04 06:20:57;;;;;;;10.73;6.37;;;2.90;99.90;;;;;;5071268;28;20221;-70
2022/04/04 06:23:25;;;;;;;8.40;5.70;;;3.00;99.90;;;;;;5071443;28;20453;-70
2022/04/04 06:25:51;;;;;;;9.87;6.30;;;3.00;99.90;;;;;;5071991;28;20201;-69
2022/04/04 06:28:18;;;;;;;7.30;5.77;;;2.90;99.90;;;;;;5075963;28;20240;-70
2022/04/04 06:30:46;;;;;;;7.17;5.60;;;2.90;99.90;;;;;;5074587;28;20225;-69
2022/04/04 06:33:13;;;;;;;10.67;6.37;;;2.80;99.90;;;;;;5074684;28;20236;-69
2022/04/04 06:35:42;;;;;;;12.10;6.50;;;2.80;99.90;;;;;;5075155;28;20205;-69
2022/04/04 06:38:10;;;;;;;7.20;6.07;;;2.60;99.90;;;;;;5063241;28;20623;-69
2022/04/04 06:40:39;;;;;;;8.80;6.50;;;2.60;99.90;;;;;;5066145;28;20226;-69
2022/04/04 06:43:06;;;;;;;10.10;6.50;;;2.50;99.90;;;;;;5066986;28;20254;-69
2022/04/04 06:45:33;;;;;;;12.97;7.20;;;2.50;99.90;;;;;;5066117;28;20731;-70
2022/04/04 06:48:00;;;;;;;9.10;6.47;;;2.50;99.90;;;;;;5061842;28;20233;-69
2022/04/04 06:50:30;;;;;;;11.47;6.53;;;2.50;99.90;;;;;;5061848;28;20693;-70
2022/04/04 06:52:58;;;;;;;8.93;7.33;;;2.60;99.90;;;;;;5074895;28;20209;-70
2022/04/04 06:55:26;;;;;;;9.00;6.83;;;2.60;99.90;;;;;;5073603;28;20213;-68
2022/04/04 06:57:53;;;;;;;12.23;7.13;;;2.70;99.90;;;;;;5063884;28;20209;-69
2022/04/04 07:00:20;;;;;;;8.03;6.37;;;2.70;99.90;;;;;;5068964;28;20205;-69
2022/04/04 07:02:47;;;;;;;12.63;7.27;;;2.70;99.90;;;;;;5065092;28;20237;-68
2022/04/04 07:05:15;;;;;;;10.17;6.57;;;2.70;99.90;;;;;;5058462;28;20685;-69
2022/04/04 07:07:43;;;;;;;10.27;6.43;;;2.80;99.90;;;;;;5071865;28;20304;-73
2022/04/04 07:10:11;;;;;;;10.67;6.80;;;2.90;99.90;;;;;;5073715;28;20260;-72
2022/04/04 07:12:41;;;;;;;9.00;6.43;;;3.00;99.90;;;;;;5064498;28;20229;-70
2022/04/04 07:15:10;;;;;;;8.13;6.50;;;3.10;99.90;;;;;;5075247;28;20206;-71
2022/04/04 07:17:38;;;;;;;10.17;6.63;;;3.10;99.90;;;;;;5071997;28;20631;-73
2022/04/04 07:20:06;;;;;;;11.40;7.03;;;3.10;99.90;;;;;;5070158;28;20205;-73
2022/04/04 07:22:36;;;;;;;9.27;6.67;;;3.20;99.90;;;;;;5065978;28;20233;-73
2022/04/04 07:25:04;;;;;;;8.33;6.07;;;3.20;99.90;;;;;;5062809;28;20205;-71
2022/04/04 07:27:32;;;;;;;12.63;7.20;;;3.30;99.90;;;;;;5069491;28;20255;-73
2022/04/04 07:30:00;;;;;;;9.43;6.50;;;3.30;99.90;;;;;;5072322;28;20225;-72
2022/04/04 07:32:27;;;;;;;11.03;7.13;;;3.50;99.90;;;;;;5075358;28;20197;-72
2022/04/04 07:34:54;;;;;;;8.17;6.53;;;3.60;99.90;;;;;;5062028;28;20205;-72
2022/04/04 07:37:22;;;;;;;10.40;6.90;;;3.70;99.90;;;;;;5068171;28;20206;-73
2022/04/04 07:39:49;;;;;;;9.27;6.97;;;3.80;99.90;;;;;;5074711;28;20669;-73
2022/04/04 07:42:16;;;;;;;11.00;7.87;;;4.00;99.90;;;;;;5058766;28;20237;-73
2022/04/04 07:44:45;;;;;;;8.73;7.20;;;4.10;99.90;;;;;;5067344;28;21660;-71
2022/04/04 07:47:12;;;;;;;9.23;6.87;;;4.20;99.90;;;;;;5074733;28;20255;-70
2022/04/04 07:49:42;;;;;;;9.33;6.73;;;4.40;99.90;;;;;;5075362;28;20214;-70
2022/04/04 07:52:12;;;;;;;10.23;7.20;;;4.70;99.90;;;;;;5076538;28;20198;-74
2022/04/04 07:54:39;;;;;;;9.87;7.13;;;4.80;99.90;;;;;;5069293;28;20219;-72
2022/04/04 07:57:07;;;;;;;10.03;6.73;;;5.00;99.90;;;;;;5059202;28;20231;-71
2022/04/04 07:59:34;;;;;;;10.93;7.27;;;5.10;99.90;;;;;;5070207;28;20673;-73
2022/04/04 08:02:03;;;;;;;10.07;6.50;;;5.30;99.90;;;;;;5072325;28;20241;-71
2022/04/04 08:04:30;;;;;;;8.30;6.73;;;5.50;99.90;;;;;;5068092;28;20601;-71
2022/04/04 08:06:57;;;;;;;10.00;6.83;;;5.70;99.90;;;;;;5067324;28;20621;-73
2022/04/04 08:09:26;;;;;;;8.13;6.90;;;5.80;99.90;;;;;;5059750;28;20260;-71
2022/04/04 08:11:54;;;;;;;10.07;6.80;;;5.90;99.90;;;;;;5081454;28;20226;-71
2022/04/04 08:14:21;;;;;;;10.37;7.03;;;5.90;99.90;;;;;;5074537;28;20213;-71
2022/04/04 08:16:48;;;;;;;10.40;7.73;;;6.00;99.90;;;;;;5062965;28;20508;-73
2022/04/04 08:19:17;;;;;;;9.90;6.90;;;6.10;99.90;;;;;;5063090;28;20198;-73
2022/04/04 08:21:44;;;;;;;8.80;6.47;;;6.30;99.90;;;;;;5064130;28;20228;-72
2022/04/04 08:24:12;;;;;;;9.63;6.23;;;6.70;99.90;;;;;;5063428;28;20209;-73
2022/04/04 08:26:40;;;;;;;11.73;6.97;;;7.00;99.90;;;;;;5070590;28;20241;-72
2022/04/04 08:29:08;;;;;;;7.27;6.20;;;7.20;99.90;;;;;;5073463;28;20213;-72
2022/04/04 08:31:35;;;;;;;9.20;6.40;;;7.50;99.90;;;;;;5061237;28;20316;-68
2022/04/04 08:34:02;;;;;;;8.63;6.90;;;7.60;99.70;;;;;;5067318;28;20685;-69
2022/04/04 08:36:31;;;;;;;9.75;7.40;;;7.70;99.20;;;;;;5066707;28;20458;-70
2022/04/04 08:38:58;;;;;;;9.70;7.07;;;7.80;98.00;;;;;;5063189;28;20455;-68
2022/04/04 08:41:26;;;;;;;10.67;7.40;;;7.90;97.00;;;;;;5065227;28;20449;-69
2022/04/04 08:43:59;;;;;;;9.00;5.80;;;8.00;96.30;;;;;;5061487;28;20456;-70
2022/04/04 08:46:27;;;;;;;9.10;5.33;;;8.20;96.10;;;;;;5056279;28;20292;-68
2022/04/04 08:48:57;;;;;;;8.43;6.30;;;8.40;95.30;;;;;;5072060;28;20622;-68
2022/04/04 08:51:24;;;;;;;6.80;6.10;;;8.50;94.00;;;;;;5063640;28;20233;-68
2022/04/04 08:53:53;;;;;;;9.80;6.50;;;8.30;92.80;;;;;;5064551;28;20292;-69
2022/04/04 08:56:23;;;;;;;10.13;6.47;;;8.10;93.10;;;;;;5062800;28;20237;-66
2022/04/04 08:58:51;;;;;;;10.53;7.00;;;8.00;93.10;;;;;;5063220;28;20202;-69
2022/04/04 09:01:18;;;;;;;8.53;6.30;;;8.00;93.70;;;;;;5060488;28;20206;-66
2022/04/04 09:03:45;;;;;;;10.40;6.53;;;8.10;93.50;;;;;;5059691;28;20201;-70
2022/04/04 09:06:12;;;;;;;8.73;6.60;;;8.30;93.40;;;;;;5068877;28;20292;-69
2022/04/04 09:08:47;;;;;;;9.63;7.50;;;8.40;93.10;;;;;;5057864;28;20288;-69
2022/04/04 09:11:16;;;;;;;9.93;7.37;;;8.50;92.40;;;;;;5061585;28;20226;-68
2022/04/04 09:13:43;;;;;;;9.20;7.30;;;8.60;91.80;;;;;;5060754;28;20275;-68
2022/04/04 09:16:11;;;;;;;13.53;7.33;;;8.60;91.70;;;;;;5059822;28;20201;-66
2022/04/04 09:18:47;;;;;;;9.37;5.83;;;8.40;91.00;;;;;;5067555;28;20240;-70
2022/04/04 09:21:29;;;;;;;7.93;6.33;;;8.20;91.20;;;;;;5057848;28;20229;-70
2022/04/04 09:23:58;;;;;;;6.37;5.70;;;8.10;91.70;;;;;;5070351;28;20201;-70
2022/04/04 09:26:32;;;;;;;6.87;5.83;;;8.10;91.70;;;;;;5069551;28;20206;-70
2022/04/04 09:29:00;;;;;;;10.32;7.63;;;8.20;92.10;;;;;;5067470;28;20470;-71
2022/04/04 09:31:27;;;;;;;10.30;8.00;;;8.20;91.70;;;;;;5062260;28;20236;-71
2022/04/04 09:33:59;;;;;;;8.53;6.20;;;8.30;91.60;;;;;;5069308;28;20201;-70
2022/04/04 09:36:26;;;;;;;7.80;6.20;;;8.30;91.50;;;;;;5071538;28;20631;-70
2022/04/04 09:39:03;;;;;;;10.73;8.77;;;8.30;91.20;;;;;;5067095;28;20881;-71
2022/04/04 09:41:32;;;;;;;7.93;6.67;;;8.30;91.30;;;;;;5056519;28;20202;-70
2022/04/04 09:44:01;;;;;;;7.03;5.70;;;8.20;90.90;;;;;;5075395;28;20244;-70
2022/04/04 09:46:33;;;;;;;10.07;7.25;;;8.00;90.60;;;;;;5075516;28;20507;-72
2022/04/04 09:49:08;;;;;;;14.47;6.47;;;8.00;91.30;;;;;;5076280;28;20658;-73
2022/04/04 09:51:42;;;;;;;7.47;6.10;;;8.20;91.60;;;;;;5075191;28;20247;-73
2022/04/04 09:54:11;;;;;;;9.70;6.27;;;8.60;92.60;;;;;;5070041;28;20236;-74
2022/04/04 09:56:40;;;;;;;8.17;6.37;;;9.30;92.20;;;;;;5078164;28;20217;-73
2022/04/04 09:59:07;;;;;;;10.40;6.73;;;9.70;90.20;;;;;;5076208;28;20213;-74
2022/04/04 10:01:34;;;;;;;7.87;5.27;;;9.90;86.80;;;;;;5068955;28;20201;-74
2022/04/04 10:04:03;;;;;;;8.30;5.50;;;10.00;83.80;;;;;;5074181;28;20761;-74
2022/04/04 10:06:31;;;;;;;8.50;6.17;;;10.00;83.80;;;;;;5080284;28;20201;-72
2022/04/04 10:09:00;;;;;;;11.53;6.00;;;10.20;83.00;;;;;;5077023;28;20271;-73
2022/04/04 10:11:30;;;;;;;6.27;4.90;;;10.50;82.30;;;;;;5075375;28;20613;-75
2022/04/04 10:13:59;;;;;;;7.57;5.50;;;10.80;80.60;;;;;;5072452;28;20220;-75
2022/04/04 10:16:26;;;;;;;8.07;5.40;;;10.80;77.30;;;;;;5077027;28;20263;-74
2022/04/04 10:18:57;;;;;;;5.83;4.83;;;10.80;76.50;;;;;;5072700;28;20205;-75
2022/04/04 10:21:25;;;;;;;5.43;4.43;;;10.80;77.00;;;;;;5069703;28;20232;-74
2022/04/04 10:23:56;;;;;;;5.53;4.50;;;11.00;76.10;;;;;;5067558;28;20205;-73
2022/04/04 10:26:28;;;;;;;6.73;4.80;;;11.10;76.50;;;;;;5075415;28;20209;-75
2022/04/04 10:29:08;;;;;;;7.83;5.20;;;11.00;73.30;;;;;;5076495;28;20222;-73
2022/04/04 10:31:44;;;;;;;10.57;5.20;;;11.00;75.90;;;;;;5059204;28;20222;-74
2022/04/04 10:34:13;;;;;;;5.43;4.60;;;11.30;75.60;;;;;;5060055;28;20236;-75
2022/04/04 10:36:55;;;;;;;6.67;4.70;;;11.40;72.80;;;;;;5076387;28;20263;-74
2022/04/04 10:39:42;;;;;;;7.30;5.00;;;11.30;71.50;;;;;;5061205;28;20226;-73
2022/04/04 10:42:31;;;;;;;7.37;5.17;;;11.30;72.60;;;;;;5062292;28;20567;-74
2022/04/04 10:45:03;;;;;;;5.67;4.60;;;11.50;72.20;;;;;;5066322;28;20208;-74
2022/04/04 10:47:31;;;;;;;5.57;4.33;;;11.60;70.80;;;;;;5067185;28;20201;-75
2022/04/04 10:50:16;;;;;;;5.67;4.17;;;11.50;69.60;;;;;;5065207;28;20229;-74
2022/04/04 10:52:45;;;;;;;7.17;4.40;;;11.40;69.20;;;;;;5061059;28;20271;-74
2022/04/04 10:55:49;;;;;;;7.53;4.67;;;11.00;68.00;;;;;;5065437;28;20209;-73
2022/04/04 10:58:27;;;;;;;6.37;4.50;;;10.80;69.70;;;;;;5073681;28;20201;-75
2022/04/04 11:00:59;;;;;;;5.23;2.60;;;10.60;70.20;;;;;;5071231;28;20595;-74
2022/04/04 11:03:30;;;;;;;3.43;2.80;;;10.40;69.20;;;;;;5069990;28;20201;-75
2022/04/04 11:09:18;;;;;;;5.77;2.90;;;10.00;68.70;;;;;;5076283;28;20212;-74
2022/04/04 11:11:52;;;;;;;4.07;3.07;;;9.90;70.00;;;;;;5060455;28;20210;-74
2022/04/04 11:14:42;;;;;;;7.43;3.20;;;9.90;70.60;;;;;;5062586;28;20217;-74
2022/04/04 11:17:30;;;;;;;4.60;2.37;;;9.90;71.40;;;;;;5069537;28;20598;-73
2022/04/04 11:20:02;;;;;;;8.47;3.33;;;10.00;68.30;;;;;;5072619;28;20213;-74
2022/04/04 11:22:32;;;;;;;5.80;2.50;;;10.10;67.90;;;;;;5064023;28;20249;-74
2022/04/04 11:25:03;;;;;;;3.73;2.20;;;9.90;66.30;;;;;;5069494;28;20652;-74
2022/04/04 11:27:33;;;;;;;4.80;3.10;;;9.70;66.00;;;;;;5070288;28;20204;-73
2022/04/04 11:30:01;;;;;;;7.97;3.70;;;9.60;66.80;;;;;;5059321;28;20747;-74
2022/04/04 11:32:38;;;;;;;5.33;3.70;;;9.40;68.00;;;;;;5062946;28;20228;-73
2022/04/04 11:35:09;;;;;;;4.27;3.33;;;9.30;70.00;;;;;;5067467;28;20658;-74
2022/04/04 11:37:46;;;;;;;5.57;3.90;;;9.40;71.70;;;;;;5058225;28;20206;-73
2022/04/04 11:40:15;;;;;;;6.20;3.43;;;9.50;71.90;;;;;;5059636;28;20198;-74
2022/04/04 11:42:44;;;;;;;5.77;3.60;;;9.60;72.20;;;;;;5064597;28;20212;-73
2022/04/04 11:45:16;;;;;;;4.93;3.57;;;9.70;72.10;;;;;;5068290;28;20307;-74
2022/04/04 11:47:52;;;;;;;7.53;3.20;;;9.60;71.30;;;;;;5070098;28;20256;-72
2022/04/04 11:50:23;;;;;;;8.00;3.50;;;9.40;71.60;;;;;;5059922;28;20202;-73
2022/04/04 11:52:52;;;;;;;5.90;3.30;;;9.30;71.30;;;;;;5063079;28;20268;-73
2022/04/04 11:55:20;;;;;;;5.37;3.13;;;9.20;71.10;;;;;;5071504;28;20209;-73
2022/04/04 11:57:49;;;;;;;5.90;4.27;;;9.10;71.60;;;;;;5070865;28;20218;-74
2022/04/04 12:00:27;;;;;;;5.63;3.63;;;9.20;72.20;;;;;;5057646;28;20575;-73
2022/04/04 12:02:55;;;;;;;6.83;3.50;;;9.20;72.30;;;;;;5057419;28;20282;-72
2022/04/04 12:05:27;;;;;;;4.63;3.90;;;9.20;72.70;;;;;;5061886;28;20205;-74
2022/04/04 12:07:54;;;;;;;7.87;3.87;;;9.30;73.10;;;;;;5072296;28;20208;-74
2022/04/04 12:10:31;;;;;;;6.47;4.13;;;9.30;72.80;;;;;;5065053;28;20321;-73
2022/04/04 12:13:03;;;;;;;5.10;4.03;;;9.50;73.30;;;;;;5074393;28;20263;-73
2022/04/04 12:15:32;;;;;;;6.23;4.87;;;9.70;73.20;;;;;;5074014;28;20205;-74
2022/04/04 12:18:02;;;;;;;7.13;4.40;;;10.00;72.00;;;;;;5064530;28;20685;-74
2022/04/04 12:20:40;;;;;;;6.00;4.27;;;10.20;70.90;;;;;;5071263;28;20228;-72
2022/04/04 12:25:56;;;;;;;4.87;4.37;;;10.40;68.60;;;;;;5071937;28;20286;-73
2022/04/04 12:28:25;;;;;;;4.53;4.03;;;10.30;68.20;;;;;;5062968;28;20708;-74
2022/04/04 12:30:53;;;;;;;5.63;4.47;;;10.10;68.40;;;;;;5074513;28;20209;-73
2022/04/04 12:33:30;;;;;;;4.83;4.27;;;10.00;68.40;;;;;;5059337;28;20593;-74
2022/04/04 12:35:57;;;;;;;6.93;4.17;;;10.20;70.00;;;;;;5060663;28;20209;-73
2022/04/04 12:38:27;;;;;;;8.27;4.47;;;10.50;70.30;;;;;;5065815;28;20588;-74
2022/04/04 12:41:09;;;;;;;7.57;4.80;;;10.80;68.10;;;;;;5067177;28;20197;-73
2022/04/04 12:43:36;;;;;;;7.90;4.00;;;11.00;68.40;;;;;;5071752;28;20221;-72
2022/04/04 12:46:06;;;;;;;8.13;4.67;;;11.30;67.30;;;;;;5060843;28;20221;-71
2022/04/04 12:48:37;;;;;;;9.57;7.53;;;11.50;66.60;;;;;;5072375;28;20201;-73
2022/04/04 12:51:04;;;;;;;6.63;5.63;;;11.60;66.90;;;;;;5063678;28;20216;-73
2022/04/04 12:53:47;;;;;;;7.50;5.47;;;11.80;67.30;;;;;;5072122;28;20635;-72
2022/04/04 12:56:14;;;;;;;7.53;5.47;;;11.90;65.60;;;;;;5064337;28;20309;-72
2022/04/04 12:58:41;;;;;;;8.60;5.20;;;11.80;64.60;;;;;;5068152;28;20224;-73
2022/04/04 13:01:15;;;;;;;7.30;6.00;;;11.80;64.60;;;;;;5063606;28;20288;-71
2022/04/04 13:03:50;;;;;;;7.20;4.87;;;11.70;63.90;;;;;;5068122;28;20664;-72
2022/04/04 13:06:18;;;;;;;5.33;4.83;;;11.60;63.90;;;;;;5062445;28;20197;-71
2022/04/04 13:09:04;;;;;;;7.10;5.20;;;11.60;64.50;;;;;;5066324;28;20227;-72